createdAt,value
2018-04-01T00:01:11.387Z,11.40
2018-04-01T00:03:38.719Z,14.17
2018-04-01T00:06:07.903Z,12.10
2018-04-01T00:08:35.243Z,16.77
2018-04-01T00:11:02.572Z,12.40
2018-04-01T00:13:29.921Z,11.37
2018-04-01T00:15:57.347Z,13.63
2018-04-01T00:18:25.468Z,9.03
2018-04-01T00:20:53.010Z,10.40
2018-04-01T00:23:20.371Z,12.37
2018-04-01T00:25:47.720Z,11.23
2018-04-01T00:28:15.488Z,10.00
2018-04-01T00:30:42.840Z,10.30
2018-04-01T00:33:10.164Z,13.93
2018-04-01T00:35:38.610Z,9.33
2018-04-01T00:38:05.944Z,8.27
2018-04-01T00:40:34.058Z,13.20
2018-04-01T00:43:01.404Z,9.80
2018-04-01T00:45:28.759Z,9.13
2018-04-01T00:47:56.129Z,9.30
2018-04-01T00:50:24.301Z,11.77
2018-04-01T00:52:52.044Z,10.57
2018-04-01T00:55:19.376Z,10.00
2018-04-01T00:57:46.728Z,12.40
2018-04-01T01:00:14.071Z,12.47
2018-04-01T01:02:41.433Z,14.83
2018-04-01T01:05:09.844Z,12.77
2018-04-01T01:07:37.180Z,13.03
2018-04-01T01:10:04.535Z,12.63
2018-04-01T01:12:31.984Z,12.07
2018-04-01T01:14:59.311Z,12.63
2018-04-01T01:17:26.666Z,14.50
2018-04-01T01:19:54.915Z,13.00
2018-04-01T01:22:22.247Z,10.70
2018-04-01T01:24:49.603Z,13.47
2018-04-01T01:27:16.947Z,12.27
2018-04-01T01:29:44.286Z,14.67
2018-04-01T01:32:11.628Z,18.60
2018-04-01T01:34:38.983Z,13.33
2018-04-01T01:37:06.792Z,15.70
2018-04-01T01:39:34.456Z,15.63
2018-04-01T01:42:01.805Z,17.23
2018-04-01T01:44:29.130Z,17.03
2018-04-01T01:46:56.480Z,15.77
2018-04-01T01:49:24.363Z,16.77
2018-04-01T01:51:51.687Z,20.47
2018-04-01T01:54:19.950Z,17.37
2018-04-01T01:56:47.302Z,16.93
2018-04-01T01:59:14.666Z,22.80
2018-04-01T02:01:42.007Z,20.17
2018-04-01T02:04:11.944Z,19.43
2018-04-01T02:06:39.263Z,21.77
2018-04-01T02:09:06.615Z,19.00
2018-04-01T02:11:34.295Z,17.33
2018-04-01T02:14:02.414Z,20.80
2018-04-01T02:16:31.077Z,24.07
2018-04-01T02:18:59.348Z,20.00
2018-04-01T02:21:26.733Z,20.20
2018-04-01T02:23:54.027Z,25.77
2018-04-01T02:26:21.799Z,23.40
2018-04-01T02:28:49.893Z,24.70
2018-04-01T02:31:17.309Z,20.97
2018-04-01T02:33:45.459Z,22.07
2018-04-01T02:36:12.797Z,19.93
2018-04-01T02:38:40.117Z,20.97
2018-04-01T02:41:07.468Z,16.97
2018-04-01T02:43:35.989Z,23.67
2018-04-01T02:46:03.307Z,26.03
2018-04-01T02:48:32.245Z,23.47
2018-04-01T02:50:59.571Z,24.57
2018-04-01T02:53:26.925Z,26.27
2018-04-01T02:55:54.273Z,25.27
2018-04-01T02:58:23.285Z,24.37
2018-04-01T03:00:51.734Z,27.13
2018-04-01T03:03:19.092Z,24.90
2018-04-01T03:05:47.374Z,25.43
2018-04-01T03:08:15.569Z,27.40
2018-04-01T03:10:43.588Z,25.83
2018-04-01T03:13:11.940Z,26.60
2018-04-01T03:15:39.309Z,31.13
2018-04-01T03:18:07.576Z,28.87
2018-04-01T03:20:34.924Z,29.77
2018-04-01T03:23:03.021Z,29.57
2018-04-01T03:25:30.360Z,24.67
2018-04-01T03:27:57.679Z,24.30
2018-04-01T03:30:25.022Z,28.93
2018-04-01T03:32:52.363Z,28.30
2018-04-01T03:35:20.465Z,25.60
2018-04-01T03:37:48.588Z,24.80
2018-04-01T03:40:15.928Z,29.23
2018-04-01T03:42:43.279Z,30.50
2018-04-01T03:45:10.624Z,23.77
2018-04-01T03:47:38.689Z,27.60
2018-04-01T03:50:06.013Z,25.60
2018-04-01T03:52:33.335Z,26.97
2018-04-01T03:55:00.683Z,19.33
2018-04-01T03:57:28.935Z,18.60
2018-04-01T03:59:56.289Z,15.93
2018-04-01T04:02:23.627Z,20.17
2018-04-01T04:04:50.975Z,18.17
2018-04-01T04:07:18.307Z,15.53
2018-04-01T04:09:46.573Z,15.80
2018-04-01T04:12:13.894Z,20.13
2018-04-01T04:14:41.238Z,19.37
2018-04-01T04:17:08.588Z,20.70
2018-04-01T04:19:36.399Z,19.37
2018-04-01T04:22:03.744Z,14.27
2018-04-01T04:24:31.087Z,16.00
2018-04-01T04:26:58.555Z,18.60
2018-04-01T04:29:26.836Z,14.50
2018-04-01T04:31:54.174Z,16.67
2018-04-01T04:34:21.693Z,13.60
2018-04-01T04:36:50.021Z,11.90
2018-04-01T04:39:17.384Z,14.73
2018-04-01T04:41:44.699Z,11.80
2018-04-01T04:44:12.555Z,13.73
2018-04-01T04:46:40.425Z,15.43
2018-04-01T04:49:07.762Z,11.47
2018-04-01T04:51:35.094Z,12.77
2018-04-01T04:54:03.192Z,15.73
2018-04-01T04:56:30.554Z,8.90
2018-04-01T04:58:59.403Z,8.53
2018-04-01T05:01:27.040Z,11.60
2018-04-01T05:03:54.390Z,13.50
2018-04-01T05:06:21.719Z,10.53
2018-04-01T05:08:49.067Z,6.67
2018-04-01T05:11:16.392Z,8.07
2018-04-01T05:13:45.960Z,6.70
2018-04-01T05:16:13.302Z,10.13
2018-04-01T05:18:40.622Z,5.77
2018-04-01T05:21:07.969Z,5.73
2018-04-01T05:23:36.089Z,7.43
2018-04-01T05:26:03.413Z,6.60
2018-04-01T05:28:31.291Z,8.00
2018-04-01T05:30:58.627Z,7.70
2018-04-01T05:33:26.664Z,9.63
2018-04-01T05:35:54.071Z,7.90
2018-04-01T05:38:23.053Z,8.60
2018-04-01T05:40:50.364Z,8.70
2018-04-01T05:43:17.689Z,8.47
2018-04-01T05:45:45.027Z,9.27
2018-04-01T05:48:12.383Z,9.50
2018-04-01T05:50:39.711Z,8.27
2018-04-01T05:53:07.043Z,9.23
2018-04-01T05:55:34.402Z,8.03
2018-04-01T05:58:01.732Z,14.43
2018-04-01T06:00:29.071Z,8.23
2018-04-01T06:02:56.391Z,16.20
2018-04-01T06:05:23.710Z,15.03
2018-04-01T06:07:51.278Z,15.20
2018-04-01T06:10:18.927Z,14.50
2018-04-01T06:12:46.285Z,15.90
2018-04-01T06:15:14.055Z,12.87
2018-04-01T06:17:41.402Z,14.87
2018-04-01T06:20:08.749Z,10.03
2018-04-01T06:22:36.091Z,9.63
2018-04-01T06:25:03.424Z,9.90
2018-04-01T06:27:31.528Z,7.10
2018-04-01T06:29:58.851Z,5.30
2018-04-01T06:32:26.202Z,5.73
2018-04-01T06:34:53.532Z,14.73
2018-04-01T06:37:21.617Z,6.83
2018-04-01T06:39:48.992Z,5.00
2018-04-01T06:42:16.284Z,4.07
2018-04-01T06:44:44.420Z,8.00
2018-04-01T06:47:11.756Z,4.50
2018-04-01T06:49:39.090Z,4.27
2018-04-01T06:52:07.195Z,4.73
2018-04-01T06:54:34.549Z,4.50
2018-04-01T06:57:02.743Z,4.70
2018-04-01T06:59:30.799Z,5.47
2018-04-01T07:01:58.539Z,6.60
2018-04-01T07:04:25.877Z,6.27
2018-04-01T07:06:54.014Z,3.70
2018-04-01T07:09:21.332Z,4.60
2018-04-01T07:11:48.684Z,10.83
2018-04-01T07:14:16.519Z,7.77
2018-04-01T07:16:45.231Z,4.60
2018-04-01T07:19:12.739Z,3.37
2018-04-01T07:21:40.116Z,3.40
2018-04-01T07:24:08.288Z,4.77
2018-04-01T07:26:35.615Z,5.20
2018-04-01T07:29:02.952Z,5.10
2018-04-01T07:31:30.274Z,4.83
2018-04-01T07:33:57.784Z,6.33
2018-04-01T07:36:25.762Z,5.50
2018-04-01T07:38:53.114Z,6.37
2018-04-01T07:41:20.463Z,12.40
2018-04-01T07:43:48.795Z,7.37
2018-04-01T07:46:16.914Z,7.90
2018-04-01T07:48:44.256Z,8.53
2018-04-01T07:51:11.598Z,9.00
2018-04-01T07:53:38.965Z,8.80
2018-04-01T07:56:07.000Z,11.77
2018-04-01T07:58:35.260Z,11.00
2018-04-01T08:01:03.279Z,11.80
2018-04-01T08:03:30.699Z,14.47
2018-04-01T08:05:58.378Z,17.30
2018-04-01T08:08:25.720Z,19.47
2018-04-01T08:10:55.789Z,40.07
2018-04-01T08:13:26.272Z,24.03
2018-04-01T08:15:54.370Z,30.00
2018-04-01T08:18:22.848Z,25.27
2018-04-01T08:20:50.202Z,23.77
2018-04-01T08:23:27.412Z,25.40
2018-04-01T08:25:54.747Z,28.67
2018-04-01T08:28:22.484Z,31.97
2018-04-01T08:30:50.600Z,29.07
2018-04-01T08:33:17.952Z,27.93
2018-04-01T08:35:45.311Z,30.37
2018-04-01T08:38:12.647Z,30.37
2018-04-01T08:40:40.009Z,31.13
2018-04-01T08:43:07.360Z,30.13
2018-04-01T08:45:35.488Z,30.30
2018-04-01T08:48:02.867Z,34.97
2018-04-01T08:50:30.660Z,31.73
2018-04-01T08:52:58.236Z,42.73
2018-04-01T08:55:25.573Z,38.03
2018-04-01T08:57:52.926Z,30.80
2018-04-01T09:00:20.438Z,28.20
2018-04-01T09:02:47.872Z,34.40
2018-04-01T09:05:15.210Z,33.10
2018-04-01T09:07:42.546Z,31.13
2018-04-01T09:10:10.790Z,27.20
2018-04-01T09:12:38.971Z,26.10
2018-04-01T09:15:07.068Z,28.20
2018-04-01T09:17:34.429Z,40.03
2018-04-01T09:20:02.630Z,31.43
2018-04-01T09:22:29.978Z,39.23
2018-04-01T09:24:57.308Z,28.47
2018-04-01T09:27:24.668Z,32.20
2018-04-01T09:29:52.037Z,31.13
2018-04-01T09:32:19.866Z,32.97
2018-04-01T09:34:47.221Z,30.83
2018-04-01T09:37:14.544Z,30.73
2018-04-01T09:39:41.887Z,30.90
2018-04-01T09:42:09.223Z,30.23
2018-04-01T09:44:37.887Z,32.70
2018-04-01T09:47:05.233Z,33.23
2018-04-01T09:49:32.595Z,35.30
2018-04-01T09:51:59.919Z,38.80
2018-04-01T09:54:27.272Z,37.13
2018-04-01T09:56:54.713Z,36.50
2018-04-01T09:59:22.096Z,35.43
2018-04-01T10:01:50.951Z,40.90
2018-04-01T10:04:19.052Z,45.70
2018-04-01T10:06:47.919Z,40.37
2018-04-01T10:09:18.950Z,43.97
2018-04-01T10:11:47.223Z,45.13
2018-04-01T10:14:15.327Z,48.00
2018-04-01T10:16:43.473Z,61.60
2018-04-01T10:19:11.625Z,55.67
2018-04-01T10:21:39.754Z,56.67
2018-04-01T10:24:09.082Z,53.23
2018-04-01T10:26:37.179Z,59.30
2018-04-01T10:29:06.554Z,59.30
2018-04-01T10:31:34.682Z,55.13
2018-04-01T10:34:02.776Z,53.20
2018-04-01T10:36:31.625Z,56.10
2018-04-01T10:39:01.451Z,59.40
2018-04-01T10:41:29.523Z,61.70
2018-04-01T10:43:57.603Z,59.07
2018-04-01T10:46:26.485Z,59.40
2018-04-01T10:48:54.612Z,62.90
2018-04-01T10:51:22.696Z,62.57
2018-04-01T10:53:57.138Z,60.67
2018-04-01T10:56:25.185Z,52.30
2018-04-01T10:58:52.513Z,59.10
2018-04-01T11:01:19.869Z,55.47
2018-04-01T11:03:47.633Z,61.80
2018-04-01T11:06:14.988Z,50.13
2018-04-01T11:08:42.340Z,46.90
2018-04-01T11:11:09.709Z,52.30
2018-04-01T11:13:37.049Z,50.33
2018-04-01T11:16:04.381Z,51.23
2018-04-01T11:18:31.731Z,46.37
2018-04-01T11:20:59.077Z,52.37
2018-04-01T11:23:26.423Z,48.10
2018-04-01T11:25:54.479Z,50.17
2018-04-01T11:28:22.774Z,48.07
2018-04-01T11:30:50.117Z,49.07
2018-04-01T11:33:17.476Z,42.37
2018-04-01T11:35:44.805Z,45.10
2018-04-01T11:38:13.273Z,42.80
2018-04-01T11:40:41.561Z,44.07
2018-04-01T11:43:08.967Z,41.80
2018-04-01T11:45:36.311Z,36.73
2018-04-01T11:48:03.680Z,38.40
2018-04-01T11:50:31.021Z,38.60
2018-04-01T11:52:58.359Z,34.97
2018-04-01T11:55:25.707Z,33.73
2018-04-01T11:57:53.038Z,29.90
2018-04-01T12:00:20.717Z,31.97
2018-04-01T12:02:49.076Z,34.90
2018-04-01T12:05:16.888Z,32.93
2018-04-01T12:07:45.359Z,30.47
2018-04-01T12:10:12.719Z,36.30
2018-04-01T12:12:40.411Z,44.20
2018-04-01T12:15:08.534Z,36.30
2018-04-01T12:17:35.889Z,33.07
2018-04-01T12:20:04.244Z,35.70
2018-04-01T12:22:31.799Z,39.03
2018-04-01T12:24:59.699Z,44.10
2018-04-01T12:27:27.068Z,44.93
2018-04-01T12:29:54.396Z,42.47
2018-04-01T12:32:21.776Z,42.47
2018-04-01T12:34:49.127Z,36.30
2018-04-01T12:37:17.267Z,43.30
2018-04-01T12:39:45.008Z,33.17
2018-04-01T12:42:12.347Z,32.30
2018-04-01T12:44:39.682Z,43.50
2018-04-01T12:47:07.044Z,39.23
2018-04-01T12:49:34.398Z,39.83
2018-04-01T12:52:01.740Z,43.17
2018-04-01T12:54:29.112Z,39.80
2018-04-01T12:56:56.470Z,47.53
2018-04-01T12:59:23.833Z,44.30
2018-04-01T13:01:51.256Z,43.17
2018-04-01T13:04:18.551Z,41.30
2018-04-01T13:06:46.724Z,42.60
2018-04-01T13:09:14.364Z,40.57
2018-04-01T13:11:41.720Z,39.50
2018-04-01T13:14:09.987Z,44.97
2018-04-01T13:16:37.353Z,35.90
2018-04-01T13:19:04.695Z,40.80
2018-04-01T13:21:32.097Z,41.77
2018-04-01T13:23:59.455Z,35.27
2018-04-01T13:26:27.304Z,44.70
2018-04-01T13:28:54.651Z,42.90
2018-04-01T13:31:23.104Z,42.30
2018-04-01T13:33:51.623Z,42.30
2018-04-01T13:36:19.749Z,36.00
2018-04-01T13:38:47.910Z,39.70
2018-04-01T13:41:15.627Z,42.67
2018-04-01T13:43:45.437Z,41.60
2018-04-01T13:46:13.648Z,39.97
2018-04-01T13:48:42.132Z,42.57
2018-04-01T13:51:10.561Z,39.50
2018-04-01T13:53:37.915Z,37.40
2018-04-01T13:56:06.200Z,44.10
2018-04-01T13:58:34.238Z,42.30
2018-04-01T14:01:01.586Z,48.63
2018-04-01T14:03:29.212Z,43.93
2018-04-01T14:05:56.548Z,42.57
2018-04-01T14:08:24.910Z,41.97
2018-04-01T14:10:52.276Z,43.07
2018-04-01T14:13:19.604Z,42.40
2018-04-01T14:15:46.973Z,45.50
2018-04-01T14:18:14.329Z,42.13
2018-04-01T14:20:41.663Z,44.77
2018-04-01T14:23:09.031Z,40.63
2018-04-01T14:25:37.314Z,45.60
2018-04-01T14:28:04.643Z,43.63
2018-04-01T14:30:32.326Z,47.13
2018-04-01T14:32:59.713Z,50.03
2018-04-01T14:35:27.050Z,47.03
2018-04-01T14:37:54.576Z,46.77
2018-04-01T14:40:22.353Z,49.93
2018-04-01T14:42:49.480Z,54.97
2018-04-01T14:45:16.852Z,49.03
2018-04-01T14:47:45.523Z,52.67
2018-04-01T14:50:12.895Z,48.13
2018-04-01T14:52:40.237Z,58.83
2018-04-01T14:55:07.578Z,48.90
2018-04-01T14:57:35.645Z,43.27
2018-04-01T15:00:03.241Z,53.33
2018-04-01T15:02:30.595Z,47.87
2018-04-01T15:04:58.864Z,48.13
2018-04-01T15:07:28.649Z,43.97
2018-04-01T15:10:05.638Z,44.13
2018-04-01T15:12:35.016Z,41.13
2018-04-01T15:15:03.309Z,40.37
2018-04-01T15:17:30.666Z,45.77
2018-04-01T15:19:59.307Z,47.80
2018-04-01T15:22:27.152Z,55.07
2018-04-01T15:24:55.555Z,55.03
2018-04-01T15:27:23.665Z,58.37
2018-04-01T15:29:51.106Z,56.90
2018-04-01T15:32:19.490Z,61.27
2018-04-01T15:34:46.867Z,60.47
2018-04-01T15:37:14.342Z,64.07
2018-04-01T15:39:42.294Z,63.23
2018-04-01T15:42:10.500Z,49.40
2018-04-01T15:44:37.860Z,32.53
2018-04-01T15:47:05.211Z,22.93
2018-04-01T15:49:33.376Z,19.80
2018-04-01T15:52:04.857Z,19.30
2018-04-01T15:54:33.309Z,19.70
2018-04-01T15:57:00.667Z,17.87
2018-04-01T15:59:28.024Z,18.70
2018-04-01T16:01:55.765Z,21.93
2018-04-01T16:04:23.125Z,21.20
2018-04-01T16:06:50.479Z,21.00
2018-04-01T16:09:17.849Z,24.80
2018-04-01T17:37:43.054Z,83.70
2018-04-01T17:40:11.343Z,83.00
2018-04-01T17:42:39.182Z,70.83
2018-04-01T17:45:06.564Z,89.13
2018-04-01T17:47:34.652Z,87.07
2018-04-01T17:50:02.111Z,64.27
2018-04-01T17:52:30.055Z,55.63
2018-04-01T17:54:57.769Z,106.77
2018-04-01T17:57:26.113Z,60.43
2018-04-01T17:59:54.289Z,69.60
2018-04-01T18:02:21.728Z,86.97
2018-04-01T18:04:49.068Z,89.37
2018-04-01T18:07:18.161Z,83.60
2018-04-01T18:09:46.665Z,79.93
2018-04-01T18:12:14.335Z,59.27
2018-04-01T18:14:50.308Z,79.93
2018-04-01T18:17:18.746Z,66.20
2018-04-01T18:19:46.094Z,49.77
2018-04-01T18:22:14.467Z,55.10
2018-04-01T18:24:42.233Z,81.30
2018-04-01T18:27:09.596Z,63.40
2018-04-01T18:29:40.775Z,57.70
2018-04-01T18:32:09.143Z,62.30
2018-04-01T18:34:37.309Z,51.73
2018-04-01T18:37:04.788Z,41.57
2018-04-01T18:39:32.194Z,52.97
2018-04-01T18:41:59.552Z,47.07
2018-04-01T18:44:26.918Z,47.73
2018-04-01T18:46:54.397Z,62.23
2018-04-01T18:49:21.867Z,64.77
2018-04-01T18:51:50.937Z,63.30
2018-04-01T18:54:18.299Z,52.07
2018-04-01T18:56:49.164Z,52.50
2018-04-01T18:59:18.702Z,43.00
2018-04-01T19:01:46.486Z,45.10
2018-04-01T19:04:14.176Z,44.33
2018-04-01T19:06:42.002Z,59.60
2018-04-01T19:09:09.388Z,55.00
2018-04-01T19:11:36.887Z,51.83
2018-04-01T19:14:04.286Z,47.03
2018-04-01T19:16:32.796Z,48.13
2018-04-01T19:19:02.428Z,54.97
2018-04-01T19:21:31.753Z,60.43
2018-04-01T19:24:00.194Z,44.40
2018-04-01T19:26:28.311Z,84.20
2018-04-01T19:28:56.409Z,59.23
2018-04-01T19:31:24.518Z,52.63
2018-04-01T19:33:52.660Z,146.67
2018-04-01T19:36:20.914Z,52.07
2018-04-01T19:38:49.400Z,67.73
2018-04-01T19:41:18.459Z,63.50
2018-04-01T19:43:46.724Z,61.37
2018-04-01T19:46:16.177Z,121.47
2018-04-01T19:48:44.251Z,75.80
2018-04-01T19:51:12.345Z,58.47
2018-04-01T19:53:40.425Z,73.87
2018-04-01T19:56:09.240Z,56.00
2018-04-01T19:58:37.350Z,61.67
2018-04-01T20:01:05.439Z,52.13
2018-04-01T20:03:33.564Z,55.63
2018-04-01T20:06:01.639Z,52.00
2018-04-01T20:08:29.745Z,57.10
2018-04-01T20:10:57.838Z,57.93
2018-04-01T20:13:25.993Z,55.83
2018-04-01T20:15:54.076Z,97.17
2018-04-01T20:18:22.192Z,58.53
2018-04-01T20:20:50.271Z,101.27
2018-04-01T20:23:18.365Z,56.53
2018-04-01T20:25:46.505Z,63.20
2018-04-01T20:28:14.616Z,70.57
2018-04-01T20:30:43.466Z,70.40
2018-04-01T20:33:12.300Z,82.37
2018-04-01T20:35:41.232Z,64.03
2018-04-01T20:38:10.448Z,61.77
2018-04-01T20:40:38.619Z,74.00
2018-04-01T20:43:06.735Z,65.10
2018-04-01T20:45:35.104Z,67.70
2018-04-01T20:48:03.200Z,109.33
2018-04-01T20:50:31.321Z,71.53
2018-04-01T20:53:00.139Z,63.67
2018-04-01T20:55:28.259Z,107.47
2018-04-01T20:57:56.380Z,85.70
2018-04-01T21:00:24.464Z,76.30
2018-04-01T21:02:52.571Z,93.67
2018-04-01T21:05:20.758Z,144.80
2018-04-01T21:07:49.283Z,140.10
2018-04-01T21:10:17.372Z,93.37
2018-04-01T21:12:45.458Z,91.60
2018-04-01T21:15:13.578Z,91.13
2018-04-01T21:17:41.660Z,108.97
2018-04-01T21:20:10.608Z,117.10
2018-04-01T21:22:40.758Z,98.70
2018-04-01T21:25:11.603Z,93.30
2018-04-01T21:27:39.691Z,92.77
2018-04-01T21:30:09.567Z,107.77
2018-04-01T21:32:38.419Z,155.57
2018-04-01T21:35:06.769Z,141.43
2018-04-01T21:37:35.085Z,242.43
2018-04-01T21:40:04.777Z,113.50
2018-04-01T21:42:32.883Z,101.57
2018-04-01T21:45:00.943Z,97.73
2018-04-01T21:47:29.039Z,102.30
2018-04-01T21:49:57.900Z,106.80
2018-04-01T21:52:26.003Z,116.60
2018-04-01T21:54:54.850Z,112.90
2018-04-01T21:57:23.550Z,108.93
2018-04-01T21:59:51.591Z,122.90
2018-04-01T22:02:19.691Z,119.67
2018-04-01T22:04:47.782Z,121.20
2018-04-01T22:07:15.858Z,124.00
2018-04-01T22:09:44.719Z,114.90
2018-04-01T22:12:12.969Z,125.70
2018-04-01T22:14:41.456Z,124.50
2018-04-01T22:17:09.536Z,126.47
2018-04-01T22:19:37.844Z,120.63
2018-04-01T22:22:05.912Z,128.70
2018-04-01T22:24:34.576Z,124.87
2018-04-01T22:27:03.615Z,121.00
2018-04-01T22:29:31.725Z,121.97
2018-04-01T22:31:59.807Z,129.30
2018-04-01T22:34:28.796Z,126.53
2018-04-01T22:36:56.893Z,125.00
2018-04-01T22:39:25.002Z,133.60
2018-04-01T22:41:53.858Z,125.77
2018-04-01T22:44:21.946Z,137.77
2018-04-01T22:46:50.023Z,150.27
2018-04-01T22:49:18.287Z,141.50
2018-04-01T22:51:46.910Z,144.77
2018-04-01T22:54:15.158Z,152.87
2018-04-01T22:56:43.251Z,154.40
2018-04-01T22:59:12.094Z,152.90
2018-04-01T23:01:40.192Z,145.53
2018-04-01T23:04:08.313Z,154.27
2018-04-01T23:06:36.393Z,154.07
2018-04-01T23:09:04.498Z,161.93
2018-04-01T23:11:32.595Z,152.50
2018-04-01T23:14:01.444Z,150.10
2018-04-01T23:16:29.537Z,160.60
2018-04-01T23:18:57.623Z,163.70
2018-04-01T23:21:26.496Z,165.40
2018-04-01T23:23:54.604Z,185.43
2018-04-01T23:26:23.458Z,191.17
2018-04-01T23:28:51.907Z,209.13
2018-04-01T23:31:19.992Z,201.00
2018-04-01T23:33:48.087Z,190.50
2018-04-01T23:36:16.160Z,203.57
2018-04-01T23:38:44.971Z,187.97
2018-04-01T23:41:13.826Z,197.67
2018-04-01T23:43:41.932Z,190.33
2018-04-01T23:46:10.796Z,203.70
2018-04-01T23:48:38.874Z,195.53
2018-04-01T23:51:07.472Z,211.30
2018-04-01T23:53:36.328Z,201.67
2018-04-01T23:56:08.065Z,216.13
2018-04-01T23:58:36.141Z,196.30
